createdAt,value
2018-06-22T00:00:30.326Z,83.34
2018-06-22T00:01:30.287Z,83.00
2018-06-22T00:02:30.270Z,83.28
2018-06-22T00:03:30.236Z,83.24
2018-06-22T00:04:30.206Z,83.34
2018-06-22T00:05:30.228Z,83.47
2018-06-22T00:06:30.158Z,83.18
2018-06-22T00:07:30.114Z,83.28
2018-06-22T00:08:30.081Z,83.09
2018-06-22T00:09:30.055Z,83.09
2018-06-22T00:10:30.026Z,83.05
2018-06-22T00:11:29.997Z,83.24
2018-06-22T00:12:29.993Z,83.34
2018-06-22T00:13:29.948Z,83.24
2018-06-22T00:14:29.921Z,83.28
2018-06-22T00:15:29.884Z,83.38
2018-06-22T00:16:29.861Z,83.00
2018-06-22T00:17:29.832Z,83.28
2018-06-22T00:18:29.818Z,83.18
2018-06-22T00:19:29.764Z,83.28
2018-06-22T00:20:29.733Z,83.00
2018-06-22T00:21:29.715Z,83.09
2018-06-22T00:22:29.679Z,82.61
2018-06-22T00:23:29.657Z,83.38
2018-06-22T00:24:29.654Z,83.09
2018-06-22T00:25:29.591Z,83.14
2018-06-22T00:26:29.566Z,83.14
2018-06-22T00:27:29.528Z,83.43
2018-06-22T00:28:29.497Z,83.43
2018-06-22T00:29:29.479Z,83.43
2018-06-22T00:30:29.447Z,83.34
2018-06-22T00:31:29.415Z,83.43
2018-06-22T00:32:29.397Z,83.62
2018-06-22T00:33:29.369Z,83.62
2018-06-22T00:34:29.330Z,83.62
2018-06-22T00:35:29.316Z,83.53
2018-06-22T00:36:29.263Z,84.10
2018-06-22T00:37:29.239Z,84.29
2018-06-22T00:38:29.228Z,84.10
2018-06-22T00:39:29.179Z,83.53
2018-06-22T00:40:29.240Z,84.00
2018-06-22T00:41:29.156Z,84.20
2018-06-22T00:42:29.088Z,84.20
2018-06-22T00:43:29.069Z,83.91
2018-06-22T00:44:29.043Z,84.20
2018-06-22T00:45:29.002Z,83.91
2018-06-22T00:46:28.975Z,83.67
2018-06-22T00:47:28.948Z,83.91
2018-06-22T00:48:28.915Z,83.81
2018-06-22T00:49:28.891Z,84.00
2018-06-22T00:50:28.853Z,83.87
2018-06-22T00:51:28.832Z,83.48
2018-06-22T00:52:28.820Z,83.58
2018-06-22T00:53:28.762Z,83.58
2018-06-22T00:54:28.742Z,83.67
2018-06-22T00:55:28.718Z,83.67
2018-06-22T00:56:28.683Z,83.77
2018-06-22T00:57:28.717Z,83.48
2018-06-22T00:58:28.666Z,83.96
2018-06-22T00:59:28.591Z,83.48
2018-06-22T01:00:28.564Z,83.58
2018-06-22T01:01:28.535Z,83.67
2018-06-22T01:02:28.513Z,83.67
2018-06-22T01:03:28.483Z,83.77
2018-06-22T01:04:28.462Z,83.48
2018-06-22T01:05:28.428Z,83.58
2018-06-22T01:06:28.386Z,83.67
2018-06-22T01:07:28.363Z,83.58
2018-06-22T01:08:28.330Z,83.48
2018-06-22T01:09:28.303Z,83.77
2018-06-22T01:10:28.268Z,83.48
2018-06-22T01:11:28.243Z,83.96
2018-06-22T01:12:28.226Z,83.67
2018-06-22T01:13:28.184Z,83.87
2018-06-22T01:14:28.163Z,83.77
2018-06-22T01:15:28.121Z,83.67
2018-06-22T01:16:28.093Z,83.58
2018-06-22T01:17:28.125Z,83.67
2018-06-22T01:18:28.086Z,83.58
2018-06-22T01:19:28.016Z,84.06
2018-06-22T01:20:27.972Z,84.34
2018-06-22T01:21:27.969Z,83.77
2018-06-22T01:22:27.918Z,83.77
2018-06-22T01:23:27.885Z,84.34
2018-06-22T01:24:27.850Z,84.25
2018-06-22T01:25:27.838Z,84.16
2018-06-22T01:26:27.823Z,84.06
2018-06-22T01:27:27.773Z,84.06
2018-06-22T01:28:27.764Z,84.25
2018-06-22T01:29:27.711Z,84.06
2018-06-22T01:30:27.697Z,84.25
2018-06-22T01:31:27.653Z,84.06
2018-06-22T01:32:27.657Z,84.16
2018-06-22T01:33:27.603Z,84.34
2018-06-22T01:34:27.597Z,84.34
2018-06-22T01:35:27.535Z,84.25
2018-06-22T01:36:27.562Z,84.16
2018-06-22T01:37:27.482Z,84.25
2018-06-22T01:38:27.482Z,84.25
2018-06-22T01:39:27.420Z,84.25
2018-06-22T01:40:27.404Z,84.25
2018-06-22T01:41:27.383Z,83.96
2018-06-22T01:42:27.356Z,84.16
2018-06-22T01:43:27.312Z,84.06
2018-06-22T01:44:27.315Z,84.06
2018-06-22T01:45:27.243Z,84.25
2018-06-22T01:46:27.206Z,84.34
2018-06-22T01:47:27.199Z,83.67
2018-06-22T01:48:27.141Z,83.96
2018-06-22T01:49:27.135Z,83.77
2018-06-22T01:50:27.081Z,83.77
2018-06-22T01:51:27.088Z,83.58
2018-06-22T01:52:27.028Z,83.67
2018-06-22T01:53:26.998Z,83.96
2018-06-22T01:54:26.975Z,83.77
2018-06-22T01:55:26.936Z,83.43
2018-06-22T01:56:26.933Z,83.43
2018-06-22T01:57:26.890Z,83.62
2018-06-22T01:58:26.906Z,83.72
2018-06-22T01:59:26.833Z,83.58
2018-06-22T02:00:26.820Z,83.87
2018-06-22T02:01:26.756Z,83.87
2018-06-22T02:02:26.743Z,83.67
2018-06-22T02:03:26.723Z,83.48
2018-06-22T02:04:26.716Z,83.39
2018-06-22T02:05:26.671Z,83.48
2018-06-22T02:06:26.660Z,83.39
2018-06-22T02:07:26.581Z,83.39
2018-06-22T02:08:26.554Z,83.29
2018-06-22T02:09:49.018Z,83.48
2018-06-22T02:11:30.567Z,83.96
2018-06-22T02:12:30.478Z,83.77
2018-06-22T02:14:36.289Z,83.48
2018-06-22T02:15:36.248Z,83.39
2018-06-22T02:17:40.611Z,83.81
2018-06-22T02:18:40.596Z,83.58
2018-06-22T02:20:45.056Z,83.87
2018-06-22T02:21:44.815Z,84.29
2018-06-22T02:23:39.399Z,83.43
2018-06-22T02:24:39.309Z,83.72
2018-06-22T02:26:42.286Z,83.67
2018-06-22T02:27:42.135Z,83.53
2018-06-22T02:29:49.000Z,83.53
2018-06-22T02:30:48.973Z,83.81
2018-06-22T02:32:52.936Z,83.72
2018-06-22T02:33:52.343Z,83.81
2018-06-22T02:35:57.656Z,83.62
2018-06-22T02:36:57.779Z,83.81
2018-06-22T02:37:57.475Z,83.72
2018-06-22T02:38:57.585Z,84.00
2018-06-22T02:39:57.500Z,83.72
2018-06-22T02:40:57.375Z,83.81
2018-06-22T02:41:57.349Z,83.91
2018-06-22T02:42:57.329Z,83.53
2018-06-22T02:43:57.293Z,83.72
2018-06-22T02:44:57.251Z,83.72
2018-06-22T02:45:57.228Z,83.72
2018-06-22T02:46:57.202Z,83.62
2018-06-22T02:47:57.175Z,83.72
2018-06-22T02:48:57.150Z,83.62
2018-06-22T02:49:57.124Z,83.62
2018-06-22T02:50:57.083Z,83.81
2018-06-22T02:51:57.065Z,83.53
2018-06-22T02:52:57.033Z,83.72
2018-06-22T02:53:56.995Z,84.00
2018-06-22T02:54:56.967Z,83.72
2018-06-22T02:55:56.931Z,83.62
2018-06-22T02:56:56.906Z,83.81
2018-06-22T02:57:56.873Z,83.91
2018-06-22T02:58:56.922Z,83.62
2018-06-22T02:59:56.883Z,83.81
2018-06-22T03:00:56.797Z,83.81
2018-06-22T03:01:56.761Z,84.00
2018-06-22T03:02:56.742Z,83.91
2018-06-22T03:03:56.714Z,83.24
2018-06-22T03:04:56.722Z,83.24
2018-06-22T03:05:56.649Z,83.81
2018-06-22T03:06:56.671Z,84.00
2018-06-22T03:07:56.588Z,83.91
2018-06-22T03:08:56.552Z,84.00
2018-06-22T03:09:56.520Z,83.91
2018-06-22T03:10:56.489Z,84.00
2018-06-22T03:11:56.467Z,83.91
2018-06-22T03:12:56.437Z,83.72
2018-06-22T03:13:56.407Z,84.00
2018-06-22T03:14:56.382Z,84.00
2018-06-22T03:15:56.393Z,83.72
2018-06-22T03:16:56.318Z,83.72
2018-06-22T03:17:56.293Z,83.62
2018-06-22T03:18:56.262Z,83.91
2018-06-22T03:19:56.243Z,83.72
2018-06-22T03:20:56.210Z,83.43
2018-06-22T03:21:56.164Z,83.62
2018-06-22T03:22:56.138Z,83.91
2018-06-22T03:23:56.124Z,83.91
2018-06-22T03:24:56.080Z,83.91
2018-06-22T03:25:56.068Z,83.72
2018-06-22T03:26:56.028Z,83.62
2018-06-22T03:27:55.990Z,83.53
2018-06-22T03:28:55.966Z,83.91
2018-06-22T03:29:55.971Z,83.72
2018-06-22T03:30:55.917Z,83.72
2018-06-22T03:31:55.903Z,83.72
2018-06-22T03:32:55.855Z,83.72
2018-06-22T03:33:55.824Z,83.53
2018-06-22T03:34:55.799Z,84.00
2018-06-22T03:35:55.768Z,83.91
2018-06-22T03:36:55.755Z,83.62
2018-06-22T03:37:55.706Z,83.72
2018-06-22T03:38:55.683Z,84.00
2018-06-22T03:39:55.639Z,83.86
2018-06-22T03:40:55.635Z,83.24
2018-06-22T03:41:55.657Z,83.53
2018-06-22T03:42:55.614Z,84.00
2018-06-22T03:43:55.577Z,83.24
2018-06-22T03:44:55.493Z,83.81
2018-06-22T03:45:55.461Z,83.81
2018-06-22T03:46:55.450Z,84.05
2018-06-22T03:47:55.398Z,83.43
2018-06-22T03:48:55.445Z,83.38
2018-06-22T03:49:55.345Z,83.38
2018-06-22T03:50:55.311Z,83.38
2018-06-22T03:51:55.293Z,83.28
2018-06-22T03:52:55.263Z,83.18
2018-06-22T03:53:55.224Z,83.38
2018-06-22T03:54:55.202Z,83.47
2018-06-22T03:55:55.171Z,83.00
2018-06-22T03:56:55.154Z,83.28
2018-06-22T03:57:55.113Z,83.28
2018-06-22T03:58:55.085Z,83.47
2018-06-22T03:59:55.046Z,83.28
2018-06-22T04:00:55.047Z,83.18
2018-06-22T04:01:54.994Z,83.00
2018-06-22T04:02:54.972Z,83.00
2018-06-22T04:03:54.932Z,83.00
2018-06-22T04:04:54.902Z,82.90
2018-06-22T04:05:54.884Z,83.18
2018-06-22T04:06:54.849Z,82.90
2018-06-22T04:07:54.814Z,82.81
2018-06-22T04:08:54.798Z,82.81
2018-06-22T04:09:54.754Z,82.90
2018-06-22T04:10:54.729Z,82.90
2018-06-22T04:11:54.715Z,82.81
2018-06-22T04:12:54.673Z,82.81
2018-06-22T04:13:54.634Z,83.09
2018-06-22T04:14:54.606Z,83.09
2018-06-22T04:15:54.584Z,83.28
2018-06-22T04:16:54.557Z,83.09
2018-06-22T04:17:54.523Z,82.90
2018-06-22T04:18:54.489Z,83.09
2018-06-22T04:19:54.460Z,82.42
2018-06-22T04:20:54.434Z,82.52
2018-06-22T04:21:54.407Z,83.04
2018-06-22T04:22:54.372Z,83.09
2018-06-22T04:23:54.347Z,82.61
2018-06-22T04:24:54.319Z,83.09
2018-06-22T04:25:54.282Z,82.90
2018-06-22T04:26:54.372Z,82.90
2018-06-22T04:27:54.225Z,83.00
2018-06-22T04:28:54.209Z,83.09
2018-06-22T04:29:54.178Z,83.09
2018-06-22T04:30:54.144Z,83.09
2018-06-22T04:31:54.112Z,83.00
2018-06-22T04:32:54.077Z,83.04
2018-06-22T04:33:54.045Z,83.38
2018-06-22T04:34:54.084Z,83.13
2018-06-22T04:35:53.999Z,83.18
2018-06-22T04:36:53.970Z,82.56
2018-06-22T04:37:53.936Z,83.23
2018-06-22T04:38:53.906Z,82.37
2018-06-22T04:39:53.875Z,82.71
2018-06-22T04:40:53.879Z,82.32
2018-06-22T04:41:53.826Z,82.46
2018-06-22T04:42:53.790Z,82.65
2018-06-22T04:43:53.764Z,82.65
2018-06-22T04:44:53.746Z,82.75
2018-06-22T04:45:53.706Z,82.46
2018-06-22T04:46:53.709Z,82.46
2018-06-22T04:47:53.648Z,82.94
2018-06-22T04:48:53.630Z,83.23
2018-06-22T04:49:53.598Z,83.04
2018-06-22T04:50:53.553Z,82.46
2018-06-22T04:51:53.562Z,82.46
2018-06-22T04:52:53.546Z,82.46
2018-06-22T04:53:53.467Z,82.46
2018-06-22T04:54:53.438Z,82.46
2018-06-22T04:55:53.411Z,82.46
2018-06-22T04:56:53.381Z,82.94
2018-06-22T04:57:53.374Z,82.75
2018-06-22T04:58:53.326Z,83.04
2018-06-22T05:00:08.339Z,83.23
2018-06-22T05:01:55.247Z,82.94
2018-06-22T05:02:54.847Z,83.04
2018-06-22T05:03:54.899Z,82.84
2018-06-22T05:04:54.793Z,83.04
2018-06-22T05:05:56.705Z,82.94
2018-06-22T05:06:54.682Z,83.00
2018-06-22T05:07:54.659Z,83.51
2018-06-22T05:08:54.621Z,83.51
2018-06-22T05:09:54.606Z,83.23
2018-06-22T05:10:54.566Z,83.42
2018-06-22T05:11:56.198Z,83.23
2018-06-22T05:12:54.500Z,83.42
2018-06-22T05:13:54.472Z,83.04
2018-06-22T05:14:54.444Z,83.51
2018-06-22T05:15:54.431Z,83.33
2018-06-22T05:16:54.387Z,83.61
2018-06-22T05:17:54.360Z,83.23
2018-06-22T05:18:54.381Z,83.42
2018-06-22T05:19:54.309Z,83.28
2018-06-22T05:20:54.278Z,84.19
2018-06-22T05:21:54.244Z,83.90
2018-06-22T05:22:54.304Z,84.09
2018-06-22T05:23:56.710Z,83.51
2018-06-22T05:24:54.247Z,83.51
2018-06-22T05:25:54.126Z,83.23
2018-06-22T05:26:54.108Z,83.61
2018-06-22T05:27:54.117Z,83.61
2018-06-22T05:28:54.228Z,83.42
2018-06-22T05:29:54.023Z,83.33
2018-06-22T05:30:54.026Z,83.13
2018-06-22T05:31:53.947Z,83.42
2018-06-22T05:32:53.943Z,83.33
2018-06-22T05:33:53.899Z,83.51
2018-06-22T05:34:53.866Z,83.80
2018-06-22T05:35:53.906Z,84.09
2018-06-22T05:36:53.805Z,83.99
2018-06-22T05:37:53.782Z,83.99
2018-06-22T05:38:53.752Z,83.80
2018-06-22T05:39:53.722Z,84.19
2018-06-22T05:40:53.693Z,83.13
2018-06-22T05:41:53.662Z,84.05
2018-06-22T05:42:53.634Z,84.09
2018-06-22T05:43:53.605Z,83.80
2018-06-22T05:44:53.573Z,83.70
2018-06-22T05:45:53.545Z,83.99
2018-06-22T05:46:53.515Z,84.09
2018-06-22T05:47:53.491Z,83.99
2018-06-22T05:48:53.454Z,83.70
2018-06-22T05:49:53.431Z,83.70
2018-06-22T05:50:53.450Z,83.70
2018-06-22T05:51:53.362Z,83.80
2018-06-22T05:52:53.355Z,83.80
2018-06-22T05:53:53.321Z,83.80
2018-06-22T05:54:53.289Z,83.80
2018-06-22T05:55:53.257Z,84.09
2018-06-22T05:56:53.252Z,83.51
2018-06-22T05:57:53.199Z,84.09
2018-06-22T05:58:53.176Z,83.90
2018-06-22T05:59:53.176Z,84.28
2018-06-22T06:00:53.113Z,84.09
2018-06-22T06:01:53.084Z,84.28
2018-06-22T06:02:53.057Z,84.38
2018-06-22T06:03:53.037Z,84.19
2018-06-22T06:04:53.007Z,84.19
2018-06-22T06:05:53.021Z,84.28
2018-06-22T06:06:52.933Z,84.28
2018-06-22T06:07:52.911Z,84.56
2018-06-22T06:08:52.873Z,84.38
2018-06-22T06:09:52.851Z,84.19
2018-06-22T06:10:52.824Z,84.47
2018-06-22T06:11:52.786Z,84.56
2018-06-22T06:12:52.762Z,84.19
2018-06-22T06:13:52.737Z,84.47
2018-06-22T06:14:52.706Z,84.28
2018-06-22T06:15:52.683Z,84.47
2018-06-22T06:16:52.759Z,84.76
2018-06-22T06:17:52.614Z,84.38
2018-06-22T06:18:52.616Z,84.56
2018-06-22T06:19:52.558Z,84.19
2018-06-22T06:20:52.529Z,85.05
2018-06-22T06:21:52.506Z,84.95
2018-06-22T06:22:52.481Z,84.47
2018-06-22T06:23:52.444Z,84.76
2018-06-22T06:24:52.426Z,84.95
2018-06-22T06:25:52.400Z,84.76
2018-06-22T06:26:52.367Z,84.85
2018-06-22T06:27:52.347Z,84.28
2018-06-22T06:28:52.290Z,84.47
2018-06-22T06:29:52.271Z,85.05
2018-06-22T06:30:52.240Z,84.85
2018-06-22T06:31:52.208Z,84.85
2018-06-22T06:33:10.060Z,84.38
2018-06-22T06:34:50.115Z,84.47
2018-06-22T06:35:49.988Z,84.28
2018-06-22T06:36:49.992Z,84.28
2018-06-22T06:37:50.098Z,84.28
2018-06-22T06:38:49.902Z,84.61
2018-06-22T06:39:49.866Z,84.23
2018-06-22T06:40:49.837Z,84.70
2018-06-22T06:41:49.839Z,84.52
2018-06-22T06:42:49.777Z,84.19
2018-06-22T06:43:49.746Z,84.95
2018-06-22T06:44:49.734Z,84.85
2018-06-22T06:45:49.709Z,84.95
2018-06-22T06:46:49.665Z,84.85
2018-06-22T06:47:49.640Z,84.85
2018-06-22T06:48:49.616Z,84.56
2018-06-22T06:49:49.601Z,84.76
2018-06-22T06:50:49.548Z,84.85
2018-06-22T06:51:49.515Z,84.66
2018-06-22T06:52:49.498Z,85.05
2018-06-22T06:53:49.466Z,84.76
2018-06-22T06:54:49.430Z,84.85
2018-06-22T06:55:49.401Z,84.95
2018-06-22T06:56:49.412Z,84.03
2018-06-22T06:57:49.343Z,85.28
2018-06-22T06:58:49.319Z,84.70
2018-06-22T06:59:49.285Z,83.94
2018-06-22T07:00:49.260Z,83.94
2018-06-22T07:01:49.232Z,84.13
2018-06-22T07:02:49.203Z,83.94
2018-06-22T07:03:49.168Z,83.84
2018-06-22T07:04:49.136Z,84.13
2018-06-22T07:05:49.117Z,83.46
2018-06-22T07:06:49.087Z,83.46
2018-06-22T07:07:49.060Z,83.65
2018-06-22T07:08:49.031Z,82.98
2018-06-22T07:09:49.003Z,83.08
2018-06-22T07:10:48.982Z,82.98
2018-06-22T07:11:48.948Z,83.17
2018-06-22T07:12:48.924Z,83.46
2018-06-22T07:13:48.938Z,83.37
2018-06-22T07:14:48.887Z,83.94
2018-06-22T07:15:48.835Z,83.94
2018-06-22T07:16:48.852Z,83.94
2018-06-22T07:17:48.784Z,85.18
2018-06-22T07:18:48.769Z,84.23
2018-06-22T07:19:49.524Z,83.56
2018-06-22T07:20:48.711Z,82.98
2018-06-22T07:21:48.661Z,81.36
2018-06-22T07:22:48.626Z,81.93
2018-06-22T07:23:48.597Z,81.74
2018-06-22T07:24:48.586Z,81.55
2018-06-22T07:25:48.539Z,81.07
2018-06-22T07:26:48.514Z,81.68
2018-06-22T07:27:48.503Z,80.79
2018-06-22T07:28:48.450Z,81.84
2018-06-22T07:29:48.428Z,82.12
2018-06-22T07:30:48.448Z,82.41
2018-06-22T07:31:48.375Z,82.75
2018-06-22T07:32:48.349Z,83.42
2018-06-22T07:33:48.342Z,83.80
2018-06-22T07:34:48.303Z,83.61
2018-06-22T07:35:48.289Z,83.90
2018-06-22T07:36:48.262Z,84.38
2018-06-22T07:37:48.222Z,84.09
2018-06-22T07:38:48.185Z,83.23
2018-06-22T07:39:48.176Z,84.47
2018-06-22T07:40:48.127Z,83.84
2018-06-22T07:41:48.094Z,83.94
2018-06-22T07:42:48.124Z,84.09
2018-06-22T07:43:48.050Z,84.61
2018-06-22T07:44:48.017Z,83.42
2018-06-22T07:45:47.968Z,82.98
2018-06-22T07:46:47.942Z,84.03
2018-06-22T07:47:47.956Z,83.56
2018-06-22T07:48:47.877Z,82.60
2018-06-22T07:49:47.899Z,83.99
2018-06-22T07:50:47.832Z,83.33
2018-06-22T07:51:47.796Z,83.61
2018-06-22T07:52:47.763Z,83.70
2018-06-22T07:53:47.763Z,83.99
2018-06-22T07:54:47.700Z,84.56
2018-06-22T07:55:47.674Z,83.99
2018-06-22T07:56:47.653Z,83.80
2018-06-22T07:57:47.618Z,84.38
2018-06-22T07:58:47.590Z,83.90
2018-06-22T07:59:47.556Z,83.99
2018-06-22T08:00:47.538Z,84.09
2018-06-22T08:01:47.524Z,84.13
2018-06-22T08:02:47.473Z,83.75
2018-06-22T08:03:47.447Z,83.84
2018-06-22T08:04:47.435Z,83.70
2018-06-22T08:05:47.391Z,84.09
2018-06-22T08:06:47.354Z,83.00
2018-06-22T08:07:47.366Z,83.67
2018-06-22T08:08:47.297Z,84.05
2018-06-22T08:09:47.284Z,84.33
2018-06-22T08:10:47.246Z,83.28
2018-06-22T08:11:47.206Z,83.18
2018-06-22T08:12:47.181Z,83.57
2018-06-22T08:13:47.175Z,84.23
2018-06-22T08:14:47.125Z,85.05
2018-06-22T08:15:47.106Z,84.23
2018-06-22T08:16:47.076Z,83.28
2018-06-22T08:17:47.039Z,83.90
2018-06-22T08:18:47.019Z,84.28
2018-06-22T08:19:46.973Z,84.28
2018-06-22T08:20:46.945Z,83.61
2018-06-22T08:21:46.915Z,84.09
2018-06-22T08:22:46.943Z,84.85
2018-06-22T08:23:46.870Z,84.32
2018-06-22T08:24:46.845Z,84.03
2018-06-22T08:25:46.796Z,84.03
2018-06-22T08:26:46.782Z,84.65
2018-06-22T08:27:46.817Z,83.98
2018-06-22T08:28:46.729Z,85.18
2018-06-22T08:29:46.696Z,84.84
2018-06-22T08:30:46.660Z,83.60
2018-06-22T08:31:46.634Z,83.79
2018-06-22T08:32:46.600Z,83.31
2018-06-22T08:33:46.568Z,84.31
2018-06-22T08:34:46.595Z,84.55
2018-06-22T08:35:46.525Z,85.27
2018-06-22T08:36:46.509Z,82.07
2018-06-22T08:37:46.485Z,82.40
2018-06-22T08:38:46.455Z,81.73
2018-06-22T08:39:46.433Z,83.26
2018-06-22T08:40:46.381Z,82.01
2018-06-22T08:41:46.439Z,82.20
2018-06-22T08:42:46.326Z,81.82
2018-06-22T08:43:46.300Z,82.11
2018-06-22T08:44:46.266Z,82.11
2018-06-22T08:45:46.239Z,82.11
2018-06-22T08:46:46.219Z,82.93
2018-06-22T08:47:46.187Z,82.54
2018-06-22T08:48:46.165Z,82.35
2018-06-22T08:49:46.137Z,83.31
2018-06-22T08:50:46.109Z,82.17
2018-06-22T08:51:46.074Z,83.60
2018-06-22T08:52:46.043Z,82.83
2018-06-22T08:53:46.067Z,83.40
2018-06-22T08:54:45.993Z,83.12
2018-06-22T08:55:46.021Z,82.93
2018-06-22T08:56:45.995Z,83.12
2018-06-22T08:57:45.939Z,82.93
2018-06-22T08:58:45.882Z,82.98
2018-06-22T08:59:45.858Z,83.65
2018-06-22T09:00:45.831Z,82.79
2018-06-22T09:01:45.802Z,83.65
2018-06-22T09:02:45.784Z,84.42
2018-06-22T09:03:45.745Z,83.56
2018-06-22T09:04:45.717Z,84.46
2018-06-22T09:05:45.690Z,84.03
2018-06-22T09:06:45.666Z,84.32
2018-06-22T09:07:45.634Z,84.70
2018-06-22T09:08:45.620Z,83.69
2018-06-22T09:09:45.596Z,83.79
2018-06-22T09:10:45.559Z,84.36
2018-06-22T09:11:45.530Z,84.08
2018-06-22T09:12:45.497Z,83.94
2018-06-22T09:13:45.494Z,84.61
2018-06-22T09:14:45.483Z,84.55
2018-06-22T09:15:45.420Z,83.75
2018-06-22T09:16:45.390Z,83.84
2018-06-22T09:17:45.370Z,84.52
2018-06-22T09:19:01.477Z,83.75
2018-06-22T09:19:45.582Z,85.22
2018-06-22T09:21:14.305Z,84.46
2018-06-22T09:21:45.250Z,84.59
2018-06-22T09:22:45.225Z,84.98
2018-06-22T09:23:45.198Z,83.36
2018-06-22T09:24:45.167Z,84.12
2018-06-22T09:25:45.142Z,84.02
2018-06-22T09:26:45.119Z,83.83
2018-06-22T09:27:45.088Z,83.73
2018-06-22T09:28:45.064Z,83.36
2018-06-22T09:29:45.037Z,84.12
2018-06-22T09:30:45.004Z,83.16
2018-06-22T09:31:44.982Z,84.69
2018-06-22T09:32:44.946Z,83.64
2018-06-22T09:33:44.921Z,83.64
2018-06-22T09:34:44.904Z,83.83
2018-06-22T09:35:44.906Z,84.22
2018-06-22T09:36:44.879Z,83.68
2018-06-22T09:37:44.899Z,82.82
2018-06-22T09:38:44.786Z,83.92
2018-06-22T09:39:44.757Z,83.72
2018-06-22T09:40:44.736Z,82.29
2018-06-22T09:41:44.724Z,82.90
2018-06-22T09:42:44.784Z,83.15
2018-06-22T09:43:44.739Z,82.29
2018-06-22T09:44:44.629Z,82.63
2018-06-22T09:45:44.595Z,82.34
2018-06-22T09:46:44.570Z,81.96
2018-06-22T09:47:44.550Z,82.34
2018-06-22T09:48:44.521Z,81.90
2018-06-22T09:49:44.492Z,82.57
2018-06-22T09:50:44.507Z,82.19
2018-06-22T09:51:44.429Z,81.62
2018-06-22T09:52:44.408Z,81.27
2018-06-22T09:53:44.428Z,81.75
2018-06-22T09:54:44.352Z,81.46
2018-06-22T09:55:44.340Z,81.27
2018-06-22T09:56:44.377Z,81.23
2018-06-22T09:57:44.276Z,81.13
2018-06-22T09:58:44.246Z,81.52
2018-06-22T09:59:44.253Z,81.67
2018-06-22T10:00:44.200Z,81.62
2018-06-22T10:01:44.171Z,82.15
2018-06-22T10:02:44.153Z,81.73
2018-06-22T10:03:44.116Z,82.30
2018-06-22T10:04:44.152Z,82.49
2018-06-22T10:05:44.067Z,82.73
2018-06-22T10:06:44.037Z,82.82
2018-06-22T10:07:44.017Z,82.34
2018-06-22T10:08:44.012Z,83.30
2018-06-22T10:09:43.952Z,82.92
2018-06-22T10:10:43.936Z,83.01
2018-06-22T10:11:43.912Z,83.01
2018-06-22T10:12:43.871Z,83.39
2018-06-22T10:13:43.849Z,81.82
2018-06-22T10:14:43.822Z,82.78
2018-06-22T10:15:43.792Z,82.97
2018-06-22T10:16:43.763Z,83.73
2018-06-22T10:17:43.743Z,84.31
2018-06-22T10:18:43.705Z,81.97
2018-06-22T10:19:43.712Z,82.45
2018-06-22T10:20:43.660Z,83.03
2018-06-22T10:21:43.629Z,83.60
2018-06-22T10:22:43.602Z,82.68
2018-06-22T10:23:43.574Z,83.60
2018-06-22T10:24:43.547Z,81.97
2018-06-22T10:25:43.524Z,82.07
2018-06-22T10:26:43.492Z,84.84
2018-06-22T10:27:43.466Z,82.74
2018-06-22T10:28:43.442Z,83.98
2018-06-22T10:29:43.468Z,82.54
2018-06-22T10:30:43.416Z,85.32
2018-06-22T10:31:43.360Z,82.87
2018-06-22T10:32:43.326Z,82.11
2018-06-22T10:33:43.313Z,83.83
2018-06-22T10:34:43.273Z,83.06
2018-06-22T10:35:43.254Z,82.97
2018-06-22T10:36:43.211Z,83.97
2018-06-22T10:37:43.183Z,84.06
2018-06-22T10:38:43.236Z,85.69
2018-06-22T10:39:43.135Z,84.55
2018-06-22T10:40:43.115Z,84.30
2018-06-22T10:41:43.079Z,84.97
2018-06-22T10:42:43.051Z,84.88
2018-06-22T10:43:43.012Z,83.63
2018-06-22T10:44:43.012Z,85.45
2018-06-22T10:45:43.023Z,84.20
2018-06-22T10:46:42.939Z,84.68
2018-06-22T10:47:42.918Z,83.92
2018-06-22T10:48:42.889Z,83.11
2018-06-22T10:49:42.864Z,84.74
2018-06-22T10:50:42.825Z,82.97
2018-06-22T10:51:42.849Z,84.31
2018-06-22T10:52:42.853Z,84.22
2018-06-22T10:53:42.770Z,83.64
2018-06-22T10:54:42.731Z,84.59
2018-06-22T10:55:42.685Z,85.17
2018-06-22T10:56:42.660Z,84.45
2018-06-22T10:57:42.634Z,85.02
2018-06-22T10:58:42.616Z,83.82
2018-06-22T10:59:42.605Z,84.49
2018-06-22T11:00:42.558Z,84.44
2018-06-22T11:01:42.532Z,83.38
2018-06-22T11:02:42.492Z,84.15
2018-06-22T11:03:42.476Z,82.90
2018-06-22T11:04:42.447Z,82.65
2018-06-22T11:05:42.478Z,84.63
2018-06-22T11:06:42.394Z,83.67
2018-06-22T11:07:43.208Z,83.29
2018-06-22T11:08:42.338Z,83.09
2018-06-22T11:09:42.440Z,83.05
2018-06-22T11:10:42.318Z,84.58
2018-06-22T11:11:42.265Z,82.96
2018-06-22T11:12:42.261Z,83.44
2018-06-22T11:13:42.215Z,84.01
2018-06-22T11:14:42.204Z,84.01
2018-06-22T11:15:42.166Z,84.01
2018-06-22T11:16:42.175Z,83.34
2018-06-22T11:17:42.151Z,85.35
2018-06-22T11:18:42.082Z,83.82
2018-06-22T11:19:42.039Z,83.92
2018-06-22T11:20:42.056Z,83.72
2018-06-22T11:21:41.992Z,84.01
2018-06-22T11:22:41.959Z,83.38
2018-06-22T11:23:41.949Z,83.86
2018-06-22T11:24:41.914Z,83.92
2018-06-22T11:25:41.883Z,82.76
2018-06-22T11:26:41.866Z,83.09
2018-06-22T11:27:41.841Z,83.48
2018-06-22T11:28:41.817Z,84.63
2018-06-22T11:29:41.793Z,83.00
2018-06-22T11:30:41.770Z,83.33
2018-06-22T11:31:41.731Z,83.61
2018-06-22T11:32:41.709Z,82.60
2018-06-22T11:33:41.687Z,82.21
2018-06-22T11:34:41.649Z,81.45
2018-06-22T11:35:41.647Z,81.40
2018-06-22T11:36:41.593Z,81.63
2018-06-22T11:37:41.570Z,79.96
2018-06-22T11:38:41.554Z,80.76
2018-06-22T11:39:41.565Z,80.24
2018-06-22T11:40:41.489Z,81.35
2018-06-22T11:41:41.465Z,80.91
2018-06-22T11:42:41.428Z,81.53
2018-06-22T11:43:41.409Z,81.71
2018-06-22T11:44:41.424Z,80.11
2018-06-22T11:45:41.429Z,79.71
2018-06-22T11:46:41.341Z,77.83
2018-06-22T11:47:41.324Z,77.50
2018-06-22T11:48:41.345Z,76.09
2018-06-22T11:49:41.325Z,76.01
2018-06-22T11:50:41.232Z,77.33
2018-06-22T11:51:41.199Z,78.50
2018-06-22T11:52:41.182Z,79.46
2018-06-22T11:53:41.158Z,79.80
2018-06-22T11:54:41.127Z,80.28
2018-06-22T11:55:41.115Z,79.86
2018-06-22T11:56:41.086Z,80.73
2018-06-22T11:57:41.065Z,80.63
2018-06-22T11:58:41.048Z,82.01
2018-06-22T11:59:41.011Z,80.32
2018-06-22T12:00:40.984Z,79.65
2018-06-22T12:01:41.006Z,79.80
2018-06-22T12:02:40.932Z,80.22
2018-06-22T12:03:40.916Z,79.75
2018-06-22T12:04:40.897Z,79.07
2018-06-22T12:05:40.883Z,79.36
2018-06-22T12:06:40.832Z,79.75
2018-06-22T12:07:40.862Z,79.61
2018-06-22T12:08:40.792Z,80.09
2018-06-22T12:09:40.768Z,80.28
2018-06-22T12:10:40.757Z,80.04
2018-06-22T12:11:40.717Z,79.55
2018-06-22T12:12:40.692Z,79.32
2018-06-22T12:13:40.733Z,78.40
2018-06-22T12:14:40.682Z,76.84
2018-06-22T12:15:40.626Z,73.65
2018-06-22T12:16:40.594Z,76.21
2018-06-22T12:17:40.589Z,75.80
2018-06-22T12:18:40.556Z,73.78
2018-06-22T12:19:40.516Z,72.72
2018-06-22T12:20:40.690Z,72.88
2018-06-22T12:21:40.519Z,74.48
2018-06-22T12:22:40.455Z,75.79
2018-06-22T12:23:40.435Z,75.94
2018-06-22T12:24:40.409Z,75.81
2018-06-22T12:25:40.381Z,77.06
2018-06-22T12:26:40.366Z,77.25
2018-06-22T12:27:40.385Z,77.25
2018-06-22T12:28:40.315Z,77.06
2018-06-22T12:29:40.297Z,76.86
2018-06-22T12:30:40.279Z,76.71
2018-06-22T12:31:40.252Z,76.07
2018-06-22T12:32:40.230Z,72.45
2018-06-22T12:33:40.200Z,69.83
2018-06-22T12:34:40.263Z,66.11
2018-06-22T12:35:40.259Z,67.29
2018-06-22T12:36:40.131Z,68.70
2018-06-22T12:37:40.136Z,70.62
2018-06-22T12:38:40.082Z,70.34
2018-06-22T12:39:40.120Z,67.46
2018-06-22T12:40:40.066Z,68.77
2018-06-22T12:41:40.015Z,66.52
2018-06-22T12:42:39.992Z,63.37
2018-06-22T12:43:39.962Z,63.54
2018-06-22T12:44:39.944Z,63.18
2018-06-22T12:45:39.982Z,62.54
2018-06-22T12:46:40.012Z,61.54
2018-06-22T12:47:39.916Z,63.98
2018-06-22T12:48:39.858Z,65.20
2018-06-22T12:49:39.835Z,66.30
2018-06-22T12:50:39.864Z,66.07
2018-06-22T12:51:39.791Z,67.00
2018-06-22T12:52:39.766Z,66.46
2018-06-22T12:53:39.763Z,64.79
2018-06-22T12:54:39.740Z,63.37
2018-06-22T12:55:39.703Z,64.86
2018-06-22T12:56:39.686Z,66.94
2018-06-22T12:57:39.685Z,68.70
2018-06-22T12:58:39.637Z,68.22
2018-06-22T12:59:39.622Z,68.76
2018-06-22T13:00:39.594Z,68.67
2018-06-22T13:01:39.571Z,69.57
2018-06-22T13:02:39.555Z,69.76
2018-06-22T13:03:39.554Z,69.76